createdAt,value
2023-02-08T00:01:48.170Z,86.85
2023-02-08T00:02:49.132Z,86.85
2023-02-08T00:03:49.100Z,86.85
2023-02-08T00:04:49.023Z,86.74
2023-02-08T00:05:48.980Z,86.85
2023-02-08T00:06:48.881Z,87.05
2023-02-08T00:07:48.793Z,87.16
2023-02-08T00:08:48.726Z,87.05
2023-02-08T00:09:48.695Z,87.05
2023-02-08T00:10:48.600Z,86.95
2023-02-08T00:11:48.510Z,86.85
2023-02-08T00:12:48.469Z,86.85
2023-02-08T00:13:48.397Z,86.74
2023-02-08T00:14:48.382Z,86.74
2023-02-08T00:15:48.310Z,86.85
2023-02-08T00:16:48.236Z,86.85
2023-02-08T00:17:48.163Z,86.88
2023-02-08T00:19:09.074Z,86.88
2023-02-08T00:19:48.000Z,86.78
2023-02-08T00:20:47.962Z,86.78
2023-02-08T00:21:47.890Z,86.63
2023-02-08T00:22:47.835Z,86.57
2023-02-08T00:23:47.777Z,86.43
2023-02-08T00:24:47.705Z,86.53
2023-02-08T00:25:47.651Z,86.57
2023-02-08T00:26:47.560Z,86.57
2023-02-08T00:27:47.584Z,86.68
2023-02-08T00:28:47.459Z,86.78
2023-02-08T00:29:47.419Z,86.99
2023-02-08T00:30:47.351Z,87.10
2023-02-08T00:31:47.383Z,87.41
2023-02-08T00:32:47.175Z,87.52
2023-02-08T00:33:47.140Z,87.52
2023-02-08T00:34:47.102Z,87.73
2023-02-08T00:35:46.990Z,87.52
2023-02-08T00:36:46.969Z,87.41
2023-02-08T00:37:46.880Z,87.41
2023-02-08T00:38:46.796Z,87.30
2023-02-08T00:39:46.765Z,87.20
2023-02-08T00:40:46.674Z,87.20
2023-02-08T00:41:46.631Z,87.20
2023-02-08T00:42:46.598Z,87.20
2023-02-08T00:43:46.473Z,87.10
2023-02-08T00:44:46.414Z,86.99
2023-02-08T00:45:46.400Z,86.99
2023-02-08T00:46:46.335Z,87.30
2023-02-08T00:47:46.234Z,87.41
2023-02-08T00:48:46.197Z,87.30
2023-02-08T00:49:46.125Z,87.30
2023-02-08T00:50:46.066Z,87.30
2023-02-08T00:51:45.999Z,87.41
2023-02-08T00:52:45.898Z,87.73
2023-02-08T00:53:45.875Z,88.25
2023-02-08T00:56:25.794Z,88.08
2023-02-08T00:57:26.730Z,88.60
2023-02-08T00:58:26.685Z,88.71
2023-02-08T00:59:26.600Z,88.29
2023-02-08T01:00:26.681Z,88.29
2023-02-08T01:01:26.494Z,88.18
2023-02-08T01:02:26.440Z,88.18
2023-02-08T01:03:26.344Z,87.76
2023-02-08T01:04:26.311Z,87.66
2023-02-08T01:05:26.223Z,87.87
2023-02-08T01:06:27.432Z,87.87
2023-02-08T01:07:26.149Z,87.91
2023-02-08T01:08:26.059Z,88.02
2023-02-08T01:09:26.010Z,88.12
2023-02-08T01:10:25.923Z,88.23
2023-02-08T01:11:25.871Z,88.44
2023-02-08T01:12:25.824Z,88.75
2023-02-08T01:13:25.715Z,88.75
2023-02-08T01:14:25.652Z,88.75
2023-02-08T01:15:25.633Z,88.65
2023-02-08T01:16:25.708Z,88.75
2023-02-08T01:17:25.476Z,88.86
2023-02-08T01:18:25.426Z,88.75
2023-02-08T01:19:25.357Z,88.54
2023-02-08T01:20:25.303Z,88.44
2023-02-08T01:21:25.208Z,88.44
2023-02-08T01:22:25.178Z,88.44
2023-02-08T01:23:25.070Z,88.44
2023-02-08T01:24:25.052Z,88.44
2023-02-08T01:25:24.989Z,88.54
2023-02-08T01:26:24.907Z,88.58
2023-02-08T01:27:24.863Z,88.58
2023-02-08T01:28:24.853Z,88.58
2023-02-08T01:29:24.711Z,88.69
2023-02-08T01:30:24.710Z,88.79
2023-02-08T01:31:24.655Z,88.69
2023-02-08T01:32:24.525Z,88.48
2023-02-08T01:33:24.464Z,88.23
2023-02-08T01:34:24.396Z,88.16
2023-02-08T01:35:24.307Z,88.16
2023-02-08T01:36:24.277Z,88.16
2023-02-08T01:37:24.199Z,88.06
2023-02-08T01:38:24.160Z,87.95
2023-02-08T01:39:24.104Z,87.95
2023-02-08T01:40:24.005Z,87.85
2023-02-08T01:41:23.957Z,87.85
2023-02-08T01:42:23.889Z,87.95
2023-02-08T01:43:23.815Z,88.06
2023-02-08T01:44:23.782Z,87.95
2023-02-08T01:45:23.711Z,88.16
2023-02-08T01:46:23.629Z,88.27
2023-02-08T01:47:23.570Z,88.37
2023-02-08T01:48:44.488Z,88.58
2023-02-08T01:49:23.443Z,88.58
2023-02-08T01:50:23.378Z,88.79
2023-02-08T01:51:23.295Z,88.90
2023-02-08T01:52:23.254Z,88.90
2023-02-08T01:53:23.161Z,88.83
2023-02-08T01:54:23.105Z,88.73
2023-02-08T01:55:23.038Z,88.83
2023-02-08T01:56:23.007Z,88.79
2023-02-08T01:57:22.947Z,88.58
2023-02-08T01:58:22.903Z,88.48
2023-02-08T01:59:22.844Z,88.58
2023-02-08T02:00:22.731Z,88.58
2023-02-08T02:01:22.746Z,88.37
2023-02-08T02:02:22.640Z,88.16
2023-02-08T02:03:22.537Z,88.06
2023-02-08T02:04:22.555Z,87.95
2023-02-08T02:05:22.452Z,87.85
2023-02-08T02:09:01.766Z,87.95
2023-02-08T02:09:41.778Z,87.95
2023-02-08T02:10:42.187Z,87.85
2023-02-08T02:11:41.661Z,87.85
2023-02-08T02:12:41.575Z,87.95
2023-02-08T02:13:41.506Z,87.95
2023-02-08T02:14:41.446Z,88.06
2023-02-08T02:15:41.349Z,87.95
2023-02-08T02:16:41.390Z,87.95
2023-02-08T02:17:41.245Z,87.85
2023-02-08T02:18:41.174Z,87.74
2023-02-08T02:19:41.113Z,87.74
2023-02-08T02:20:41.409Z,87.85
2023-02-08T02:21:41.032Z,87.95
2023-02-08T02:22:40.957Z,87.95
2023-02-08T02:23:40.867Z,87.74
2023-02-08T02:24:40.807Z,87.53
2023-02-08T02:25:40.740Z,87.74
2023-02-08T02:28:59.136Z,87.53
2023-02-08T02:30:00.046Z,87.32
2023-02-08T02:30:59.971Z,87.21
2023-02-08T02:31:59.940Z,87.21
2023-02-08T02:32:59.863Z,87.11
2023-02-08T02:33:59.788Z,87.11
2023-02-08T02:34:59.725Z,87.21
2023-02-08T02:35:59.641Z,87.21
2023-02-08T02:36:59.577Z,87.21
2023-02-08T02:37:59.520Z,87.42
2023-02-08T02:38:59.479Z,87.32
2023-02-08T02:39:59.467Z,87.25
2023-02-08T02:40:59.387Z,87.32
2023-02-08T02:41:59.331Z,87.36
2023-02-08T02:42:59.220Z,87.46
2023-02-08T02:43:59.135Z,87.46
2023-02-08T02:44:59.121Z,87.36
2023-02-08T02:46:20.010Z,87.25
2023-02-08T02:46:58.994Z,87.25
2023-02-08T02:47:58.915Z,87.36
2023-02-08T02:48:58.857Z,87.36
2023-02-08T02:49:58.809Z,87.25
2023-02-08T02:50:58.743Z,87.25
2023-02-08T02:51:58.668Z,87.15
2023-02-08T02:52:58.591Z,87.04
2023-02-08T02:53:58.534Z,87.04
2023-02-08T02:54:58.459Z,87.04
2023-02-08T02:55:58.400Z,87.04
2023-02-08T02:56:58.373Z,87.15
2023-02-08T02:57:58.287Z,87.25
2023-02-08T02:58:58.174Z,87.25
2023-02-08T02:59:58.149Z,87.25
2023-02-08T03:00:58.089Z,87.36
2023-02-08T03:01:58.022Z,87.25
2023-02-08T03:02:57.930Z,87.25
2023-02-08T03:04:18.902Z,87.29
2023-02-08T03:04:57.828Z,87.40
2023-02-08T03:05:57.735Z,87.71
2023-02-08T03:06:57.705Z,87.82
2023-02-08T03:07:57.636Z,87.93
2023-02-08T03:08:57.577Z,87.93
2023-02-08T03:09:57.519Z,87.93
2023-02-08T03:10:57.444Z,87.93
2023-02-08T03:11:57.359Z,87.82
2023-02-08T03:12:57.331Z,87.93
2023-02-08T03:13:57.256Z,87.82
2023-02-08T03:14:57.192Z,87.93
2023-02-08T03:15:57.133Z,88.13
2023-02-08T03:16:57.118Z,88.13
2023-02-08T03:17:56.979Z,88.03
2023-02-08T03:18:56.943Z,87.93
2023-02-08T03:19:56.872Z,87.93
2023-02-08T03:20:56.834Z,87.82
2023-02-08T03:23:35.754Z,88.03
2023-02-08T03:24:36.667Z,87.82
2023-02-08T03:25:36.624Z,87.82
2023-02-08T03:26:36.541Z,87.82
2023-02-08T03:27:36.479Z,87.61
2023-02-08T03:28:36.407Z,87.36
2023-02-08T03:29:36.380Z,87.46
2023-02-08T03:30:36.386Z,87.61
2023-02-08T03:31:36.308Z,87.50
2023-02-08T03:32:36.150Z,87.50
2023-02-08T03:35:54.564Z,87.50
2023-02-08T03:36:55.449Z,87.29
2023-02-08T03:37:55.412Z,87.29
2023-02-08T03:38:55.346Z,87.19
2023-02-08T03:39:55.292Z,87.19
2023-02-08T03:42:04.470Z,87.40
2023-02-08T03:43:05.407Z,87.29
2023-02-08T03:44:05.338Z,87.19
2023-02-08T03:45:05.256Z,87.19
2023-02-08T03:46:05.245Z,87.29
2023-02-08T03:47:05.139Z,87.50
2023-02-08T03:48:05.092Z,87.71
2023-02-08T03:49:05.001Z,87.71
2023-02-08T03:50:04.925Z,87.93
2023-02-08T03:51:04.908Z,88.03
2023-02-08T03:52:04.788Z,88.28
2023-02-08T03:53:04.773Z,88.60
2023-02-08T03:54:04.661Z,88.92
2023-02-08T03:55:04.616Z,89.23
2023-02-08T03:56:04.583Z,89.54
2023-02-08T03:57:04.498Z,89.76
2023-02-08T03:58:04.424Z,89.86
2023-02-08T03:59:04.353Z,89.97
2023-02-08T04:00:04.309Z,90.08
2023-02-08T04:01:04.332Z,90.11
2023-02-08T04:02:04.181Z,90.33
2023-02-08T04:03:04.104Z,90.54
2023-02-08T04:04:04.069Z,90.64
2023-02-08T04:05:03.961Z,90.75
2023-02-08T04:06:03.921Z,90.85
2023-02-08T04:07:03.855Z,90.96
2023-02-08T04:08:03.788Z,91.06
2023-02-08T04:09:03.732Z,91.28
2023-02-08T04:10:03.662Z,91.49
2023-02-08T04:11:03.646Z,91.59
2023-02-08T04:12:03.558Z,91.59
2023-02-08T04:13:03.444Z,91.70
2023-02-08T04:14:03.405Z,91.85
2023-02-08T04:15:03.369Z,91.85
2023-02-08T04:16:03.284Z,92.05
2023-02-08T04:17:03.207Z,92.05
2023-02-08T04:18:03.148Z,92.16
2023-02-08T04:19:03.116Z,92.27
2023-02-08T04:20:03.023Z,92.48
2023-02-08T04:21:02.960Z,92.37
2023-02-08T04:22:02.925Z,92.27
2023-02-08T04:23:02.845Z,92.27
2023-02-08T04:24:02.736Z,92.12
2023-02-08T04:25:02.712Z,92.02
2023-02-08T04:26:02.641Z,91.91
2023-02-08T04:27:23.551Z,91.80
2023-02-08T04:28:02.552Z,91.70
2023-02-08T04:29:02.502Z,91.59
2023-02-08T04:30:02.384Z,91.59
2023-02-08T04:31:02.372Z,91.38
2023-02-08T04:32:02.280Z,91.49
2023-02-08T04:33:02.177Z,91.38
2023-02-08T04:34:02.106Z,91.28
2023-02-08T04:35:02.049Z,91.17
2023-02-08T04:36:01.979Z,91.06
2023-02-08T04:37:01.971Z,90.85
2023-02-08T04:38:01.853Z,90.54
2023-02-08T04:39:01.855Z,90.43
2023-02-08T04:40:01.728Z,90.39
2023-02-08T04:41:01.738Z,90.50
2023-02-08T04:42:03.287Z,90.60
2023-02-08T04:43:01.562Z,90.33
2023-02-08T04:44:01.472Z,90.11
2023-02-08T04:45:01.466Z,89.90
2023-02-08T04:46:01.378Z,89.90
2023-02-08T04:47:01.321Z,90.01
2023-02-08T04:48:01.300Z,90.11
2023-02-08T04:49:01.219Z,90.33
2023-02-08T04:50:01.139Z,90.33
2023-02-08T04:51:01.051Z,90.11
2023-02-08T04:52:00.963Z,90.01
2023-02-08T04:53:00.914Z,89.90
2023-02-08T04:54:00.880Z,90.01
2023-02-08T04:55:00.818Z,90.11
2023-02-08T04:56:00.734Z,90.22
2023-02-08T04:57:00.671Z,90.47
2023-02-08T04:58:00.578Z,90.54
2023-02-08T04:59:00.565Z,90.75
2023-02-08T05:00:00.714Z,90.96
2023-02-08T05:01:00.437Z,90.96
2023-02-08T05:02:00.366Z,90.96
2023-02-08T05:03:00.270Z,90.75
2023-02-08T05:04:00.196Z,90.54
2023-02-08T05:05:00.242Z,90.33
2023-02-08T05:06:00.133Z,90.11
2023-02-08T05:07:00.027Z,89.79
2023-02-08T05:07:59.965Z,89.59
2023-02-08T05:08:59.909Z,89.48
2023-02-08T05:09:59.864Z,89.37
2023-02-08T05:11:00.671Z,89.27
2023-02-08T05:11:59.712Z,89.48
2023-02-08T05:12:59.663Z,89.37
2023-02-08T05:13:59.580Z,89.17
2023-02-08T05:14:59.522Z,89.06
2023-02-08T05:15:59.471Z,89.48
2023-02-08T05:16:59.468Z,89.59
2023-02-08T05:17:59.298Z,89.48
2023-02-08T05:18:59.236Z,89.17
2023-02-08T05:19:59.205Z,89.06
2023-02-08T05:20:59.129Z,89.06
2023-02-08T05:21:59.064Z,88.95
2023-02-08T05:22:59.031Z,89.17
2023-02-08T05:23:58.917Z,89.27
2023-02-08T05:24:58.866Z,89.37
2023-02-08T05:25:58.827Z,89.48
2023-02-08T05:26:58.771Z,89.52
2023-02-08T05:27:58.703Z,89.52
2023-02-08T05:28:58.672Z,89.42
2023-02-08T05:29:59.161Z,89.31
2023-02-08T05:30:58.577Z,89.42
2023-02-08T05:31:58.461Z,89.42
2023-02-08T05:32:58.376Z,89.52
2023-02-08T05:33:58.300Z,89.42
2023-02-08T05:34:58.264Z,89.42
2023-02-08T05:35:58.178Z,89.42
2023-02-08T05:36:58.170Z,89.42
2023-02-08T05:37:58.074Z,89.42
2023-02-08T05:38:58.029Z,89.56
2023-02-08T05:39:57.916Z,89.77
2023-02-08T05:41:00.283Z,89.98
2023-02-08T05:41:57.820Z,90.20
2023-02-08T05:42:57.718Z,90.41
2023-02-08T05:43:57.693Z,90.41
2023-02-08T05:44:57.586Z,90.52
2023-02-08T05:45:57.535Z,90.52
2023-02-08T05:46:57.542Z,90.58
2023-02-08T05:47:57.398Z,90.47
2023-02-08T05:48:57.354Z,90.41
2023-02-08T05:49:57.245Z,90.52
2023-02-08T05:50:57.200Z,90.62
2023-02-08T05:51:57.149Z,90.62
2023-02-08T05:52:57.090Z,90.72
2023-02-08T05:53:57.043Z,90.72
2023-02-08T05:54:56.946Z,90.94
2023-02-08T05:55:56.910Z,91.14
2023-02-08T05:56:56.845Z,91.36
2023-02-08T05:57:56.817Z,91.36
2023-02-08T05:58:56.706Z,91.67
2023-02-08T05:59:56.610Z,91.78
2023-02-08T06:00:56.561Z,91.99
2023-02-08T06:01:56.507Z,92.31
2023-02-08T06:02:56.504Z,92.31
2023-02-08T06:03:56.403Z,92.31
2023-02-08T06:06:35.350Z,92.46
2023-02-08T06:07:36.240Z,92.67
2023-02-08T06:08:36.159Z,92.77
2023-02-08T06:09:36.132Z,92.88
2023-02-08T06:10:36.093Z,93.09
2023-02-08T06:11:35.925Z,93.09
2023-02-08T06:12:35.917Z,92.99
2023-02-08T06:13:35.822Z,92.99
2023-02-08T06:14:35.795Z,92.88
2023-02-08T06:15:35.747Z,92.99
2023-02-08T06:16:35.742Z,92.99
2023-02-08T06:17:35.613Z,92.88
2023-02-08T06:18:35.551Z,92.77
2023-02-08T06:19:35.450Z,92.88
2023-02-08T06:20:35.420Z,92.77
2023-02-08T06:21:35.391Z,92.77
2023-02-08T06:22:35.301Z,92.67
2023-02-08T06:23:35.178Z,92.67
2023-02-08T06:24:35.143Z,92.56
2023-02-08T06:25:35.077Z,92.46
2023-02-08T06:26:34.965Z,92.35
2023-02-08T06:27:34.927Z,92.35
2023-02-08T06:28:34.876Z,92.67
2023-02-08T06:29:34.774Z,92.99
2023-02-08T06:30:34.731Z,93.05
2023-02-08T06:31:34.734Z,92.94
2023-02-08T06:32:34.620Z,92.73
2023-02-08T06:33:34.549Z,92.52
2023-02-08T06:34:34.513Z,92.31
2023-02-08T06:35:34.391Z,92.20
2023-02-08T06:36:34.383Z,91.99
2023-02-08T06:37:34.323Z,91.78
2023-02-08T06:38:34.225Z,91.78
2023-02-08T06:39:34.139Z,91.78
2023-02-08T06:44:01.626Z,92.10
2023-02-08T06:45:02.528Z,92.10
2023-02-08T06:46:02.532Z,91.99
2023-02-08T06:47:02.423Z,91.78
2023-02-08T06:48:02.369Z,91.57
2023-02-08T06:49:02.332Z,91.46
2023-02-08T06:50:02.241Z,91.46
2023-02-08T06:51:02.200Z,91.46
2023-02-08T06:52:02.112Z,91.57
2023-02-08T06:53:02.013Z,91.78
2023-02-08T06:54:02.006Z,91.78
2023-02-08T06:55:01.912Z,91.67
2023-02-08T06:56:01.884Z,91.67
2023-02-08T06:57:01.795Z,91.78
2023-02-08T06:58:01.725Z,91.78
2023-02-08T06:59:01.697Z,91.78
2023-02-08T07:00:01.604Z,91.78
2023-02-08T07:01:01.606Z,91.89
2023-02-08T07:02:01.676Z,91.99
2023-02-08T07:03:01.378Z,92.20
2023-02-08T07:04:01.352Z,92.31
2023-02-08T07:05:01.282Z,92.41
2023-02-08T07:06:05.606Z,92.52
2023-02-08T07:07:01.191Z,92.52
2023-02-08T07:08:01.091Z,92.52
2023-02-08T07:09:00.997Z,92.41
2023-02-08T07:10:00.990Z,92.31
2023-02-08T07:11:00.896Z,92.31
2023-02-08T07:12:00.824Z,92.10
2023-02-08T07:13:00.789Z,91.99
2023-02-08T07:14:00.746Z,91.99
2023-02-08T07:15:00.644Z,91.89
2023-02-08T07:16:00.599Z,91.89
2023-02-08T07:17:00.587Z,91.89
2023-02-08T07:18:00.458Z,91.89
2023-02-08T07:19:00.397Z,91.89
2023-02-08T07:20:00.343Z,92.10
2023-02-08T07:21:00.280Z,92.10
2023-02-08T07:22:00.167Z,92.10
2023-02-08T07:23:00.160Z,91.99
2023-02-08T07:24:00.044Z,91.99
2023-02-08T07:25:00.033Z,91.89
2023-02-08T07:25:59.911Z,91.99
2023-02-08T07:26:59.867Z,92.10
2023-02-08T07:27:59.869Z,92.10
2023-02-08T07:28:59.744Z,92.10
2023-02-08T07:29:59.676Z,91.99
2023-02-08T07:30:59.644Z,91.85
2023-02-08T07:31:59.585Z,91.85
2023-02-08T07:32:59.462Z,91.74
2023-02-08T07:33:59.449Z,91.38
2023-02-08T07:34:59.394Z,91.17
2023-02-08T07:35:59.302Z,90.96
2023-02-08T07:36:59.326Z,90.75
2023-02-08T07:37:59.168Z,90.43
2023-02-08T07:38:59.152Z,90.11
2023-02-08T07:39:59.088Z,89.69
2023-02-08T07:40:59.005Z,89.44
2023-02-08T07:41:58.924Z,89.23
2023-02-08T07:42:58.870Z,89.02
2023-02-08T07:43:58.817Z,88.92
2023-02-08T07:44:58.752Z,88.92
2023-02-08T07:45:58.680Z,89.02
2023-02-08T07:46:58.616Z,89.02
2023-02-08T07:47:58.507Z,89.02
2023-02-08T07:49:19.454Z,88.92
2023-02-08T07:49:58.376Z,89.12
2023-02-08T07:50:58.318Z,89.19
2023-02-08T07:51:58.280Z,89.29
2023-02-08T07:52:58.211Z,88.77
2023-02-08T07:53:58.155Z,88.56
2023-02-08T07:54:58.102Z,88.56
2023-02-08T07:55:57.994Z,88.66
2023-02-08T07:56:57.942Z,88.45
2023-02-08T07:57:57.872Z,88.24
2023-02-08T07:58:57.809Z,88.24
2023-02-08T07:59:57.767Z,87.93
2023-02-08T08:00:57.987Z,87.82
2023-02-08T08:01:57.708Z,87.68
2023-02-08T08:02:57.605Z,87.78
2023-02-08T08:03:57.547Z,87.78
2023-02-08T08:04:57.476Z,87.99
2023-02-08T08:05:57.396Z,88.06
2023-02-08T08:07:18.337Z,88.16
2023-02-08T08:07:57.255Z,88.06
2023-02-08T08:08:57.191Z,87.63
2023-02-08T08:09:57.111Z,87.32
2023-02-08T08:10:57.048Z,87.32
2023-02-08T08:11:57.009Z,86.96
2023-02-08T08:12:56.924Z,86.86
2023-02-08T08:13:56.885Z,86.61
2023-02-08T08:14:56.784Z,86.15
2023-02-08T08:15:56.849Z,85.52
2023-02-08T08:16:56.721Z,84.74
2023-02-08T08:17:56.591Z,84.22
2023-02-08T08:18:56.572Z,83.97
2023-02-08T08:19:56.499Z,83.54
2023-02-08T08:20:56.474Z,82.56
2023-02-08T08:21:56.371Z,82.25
2023-02-08T08:22:56.329Z,81.90
2023-02-08T08:23:56.244Z,81.44
2023-02-08T08:27:35.520Z,79.48
2023-02-08T08:28:15.676Z,78.85
2023-02-08T08:29:15.426Z,78.85
2023-02-08T08:30:15.317Z,78.43
2023-02-08T08:31:15.418Z,78.53
2023-02-08T08:32:15.203Z,78.43
2023-02-08T08:33:15.186Z,78.22
2023-02-08T08:34:15.111Z,78.01
2023-02-08T08:35:15.012Z,77.80
2023-02-08T08:36:14.981Z,77.76
2023-02-08T08:37:14.884Z,77.56
2023-02-08T08:38:14.799Z,77.45
2023-02-08T08:39:14.805Z,76.89
2023-02-08T08:40:14.717Z,76.44
2023-02-08T08:41:14.618Z,76.12
2023-02-08T08:42:14.570Z,75.46
2023-02-08T08:43:14.481Z,75.25
2023-02-08T08:44:14.442Z,75.25
2023-02-08T08:45:35.359Z,74.80
2023-02-08T08:46:14.368Z,74.69
2023-02-08T08:47:14.340Z,74.27
2023-02-08T08:48:14.190Z,74.14
2023-02-08T08:49:14.162Z,74.14
2023-02-08T08:50:14.082Z,73.93
2023-02-08T08:51:14.069Z,73.86
2023-02-08T08:52:13.938Z,73.96
2023-02-08T08:53:13.900Z,74.07
2023-02-08T08:54:13.806Z,73.96
2023-02-08T08:55:13.733Z,73.75
2023-02-08T08:56:13.674Z,73.68
2023-02-08T08:57:13.624Z,74.03
2023-02-08T08:58:13.564Z,75.04
2023-02-08T08:59:13.531Z,76.19
2023-02-08T09:00:13.403Z,76.51
2023-02-08T09:01:13.359Z,76.79
2023-02-08T09:02:13.268Z,75.95
2023-02-08T09:04:52.136Z,75.18
2023-02-08T09:05:53.070Z,75.18
2023-02-08T09:06:53.001Z,74.66
2023-02-08T09:07:52.910Z,74.87
2023-02-08T09:08:53.351Z,75.29
2023-02-08T09:09:52.793Z,75.15
2023-02-08T09:10:52.717Z,74.84
2023-02-08T09:11:52.682Z,74.62
2023-02-08T09:12:52.659Z,74.84
2023-02-08T09:13:52.557Z,74.52
2023-02-08T09:14:52.529Z,74.31
2023-02-08T09:15:52.463Z,74.52
2023-02-08T09:16:52.341Z,74.84
2023-02-08T09:17:52.335Z,74.59
2023-02-08T09:18:52.239Z,75.32
2023-02-08T09:19:52.174Z,75.22
2023-02-08T09:20:52.145Z,74.69
2023-02-08T09:21:52.029Z,74.90
2023-02-08T09:22:52.007Z,74.59
2023-02-08T09:23:51.914Z,74.49
2023-02-08T09:24:51.877Z,73.23
2023-02-08T09:25:51.814Z,73.13
2023-02-08T09:26:51.707Z,73.16
2023-02-08T09:27:51.689Z,73.58
2023-02-08T09:28:51.622Z,73.89
2023-02-08T09:29:51.516Z,73.79
2023-02-08T09:30:51.501Z,74.17
2023-02-08T09:31:51.494Z,75.01
2023-02-08T09:32:51.362Z,74.04
2023-02-08T09:33:51.307Z,72.43
2023-02-08T09:34:51.212Z,71.46
2023-02-08T09:35:51.151Z,71.64
2023-02-08T09:36:51.135Z,71.19
2023-02-08T09:37:51.020Z,70.66
2023-02-08T09:38:50.952Z,69.69
2023-02-08T09:39:50.896Z,69.45
2023-02-08T09:40:50.806Z,68.90
2023-02-08T09:41:50.747Z,68.79
2023-02-08T09:42:50.700Z,68.69
2023-02-08T09:43:50.681Z,69.21
2023-02-08T09:44:50.625Z,69.21
2023-02-08T09:45:59.209Z,68.69
2023-02-08T09:46:50.540Z,68.27
2023-02-08T09:47:50.389Z,68.13
2023-02-08T09:48:50.335Z,67.82
2023-02-08T09:49:50.228Z,67.72
2023-02-08T09:50:50.268Z,67.93
2023-02-08T09:51:50.158Z,67.72
2023-02-08T09:52:50.078Z,67.30
2023-02-08T09:53:50.005Z,66.86
2023-02-08T09:54:49.942Z,66.44
2023-02-08T09:55:49.921Z,66.02
2023-02-08T09:56:49.867Z,65.71
2023-02-08T09:57:49.788Z,65.53
2023-02-08T09:58:49.682Z,65.74
2023-02-08T09:59:49.627Z,65.95
2023-02-08T10:00:49.622Z,66.99
2023-02-08T10:01:49.513Z,67.17
2023-02-08T10:02:49.467Z,66.23
2023-02-08T10:03:49.372Z,65.40
2023-02-08T10:04:49.328Z,65.19
2023-02-08T10:05:49.235Z,65.30
2023-02-08T10:06:50.248Z,66.13
2023-02-08T10:07:49.138Z,65.92
2023-02-08T10:08:49.093Z,65.71
2023-02-08T10:09:48.998Z,65.71
2023-02-08T10:10:48.922Z,65.81
2023-02-08T10:11:48.889Z,65.09
2023-02-08T10:12:48.787Z,64.87
2023-02-08T10:13:48.763Z,64.87
2023-02-08T10:14:48.692Z,64.95
2023-02-08T10:15:48.629Z,64.43
2023-02-08T10:16:48.532Z,64.32
2023-02-08T10:17:48.469Z,63.60
2023-02-08T10:18:48.446Z,64.51
2023-02-08T10:19:48.345Z,64.48
2023-02-08T10:20:48.335Z,63.54
2023-02-08T10:21:48.255Z,63.31
2023-02-08T10:22:48.129Z,62.88
2023-02-08T10:23:48.132Z,62.68
2023-02-08T10:24:48.068Z,63.93
2023-02-08T10:25:47.977Z,63.17
2023-02-08T10:26:48.017Z,62.83
2023-02-08T10:27:47.861Z,62.41
2023-02-08T10:28:47.796Z,61.55
2023-02-08T10:29:47.701Z,61.35
2023-02-08T10:30:47.862Z,61.35
2023-02-08T10:31:47.788Z,61.76
2023-02-08T10:34:26.744Z,61.55
2023-02-08T10:35:28.235Z,61.04
2023-02-08T10:36:28.482Z,60.93
2023-02-08T10:37:29.256Z,61.22
2023-02-08T10:38:37.136Z,59.77
2023-02-08T10:39:28.043Z,59.04
2023-02-08T10:40:27.568Z,58.00
2023-02-08T10:41:27.258Z,58.80
2023-02-08T10:42:27.225Z,59.01
2023-02-08T10:43:29.172Z,57.53
2023-02-08T10:44:27.112Z,55.64
2023-02-08T10:45:28.622Z,55.64
2023-02-08T10:46:27.669Z,54.71
2023-02-08T10:47:27.089Z,55.04
2023-02-08T10:48:28.729Z,55.87
2023-02-08T10:49:28.716Z,56.29
2023-02-08T10:50:29.232Z,56.18
2023-02-08T10:51:26.997Z,55.15
2023-02-08T10:52:28.062Z,56.29
2023-02-08T10:53:26.616Z,56.05
2023-02-08T10:54:26.528Z,56.26
2023-02-08T10:55:26.409Z,56.05
2023-02-08T10:56:27.036Z,56.16
2023-02-08T10:57:26.390Z,55.74
2023-02-08T10:58:28.183Z,55.33
2023-02-08T10:59:26.209Z,55.12
2023-02-08T11:00:26.680Z,54.42
2023-02-08T11:01:27.258Z,53.80
2023-02-08T11:02:27.535Z,54.44
2023-02-08T11:03:25.981Z,54.24
2023-02-08T11:04:26.625Z,54.34
2023-02-08T11:05:27.619Z,55.17
2023-02-08T11:06:25.652Z,55.27
2023-02-08T11:07:29.679Z,54.42
2023-02-08T11:08:29.038Z,53.80
2023-02-08T12:40:41.603Z,47.30
2023-02-08T12:41:42.482Z,46.06
2023-02-08T12:42:42.426Z,46.66
2023-02-08T12:43:42.358Z,45.61
2023-02-08T12:44:42.294Z,46.53
2023-02-08T12:45:42.605Z,45.50
2023-02-08T12:46:42.183Z,45.07
2023-02-08T12:47:43.719Z,44.45
2023-02-08T12:48:42.051Z,44.96
2023-02-08T12:49:41.989Z,44.57
2023-02-08T12:50:41.926Z,44.89
2023-02-08T12:51:41.863Z,45.40
2023-02-08T12:52:41.788Z,45.83
2023-02-08T12:53:41.747Z,45.94
2023-02-08T12:54:41.700Z,46.17
2023-02-08T12:55:41.981Z,46.27
2023-02-08T12:56:42.392Z,44.41
2023-02-08T12:57:41.522Z,44.39
2023-02-08T12:58:41.453Z,43.59
2023-02-08T12:59:41.349Z,44.20
2023-02-08T13:00:41.671Z,44.93
2023-02-08T13:01:41.302Z,45.15
2023-02-08T13:02:41.173Z,44.22
2023-02-08T13:03:41.120Z,43.99
2023-02-08T13:04:41.036Z,44.51
2023-02-08T13:05:46.214Z,45.13
2023-02-08T13:06:40.946Z,45.34
2023-02-08T13:07:40.821Z,45.15
2023-02-08T13:08:40.788Z,44.95
2023-02-08T13:09:40.764Z,46.08
2023-02-08T13:10:40.654Z,45.13
2023-02-08T13:11:40.634Z,45.54
2023-02-08T13:12:40.548Z,46.06
2023-02-08T13:13:40.461Z,45.13
2023-02-08T13:14:40.382Z,46.39
2023-02-08T13:17:20.305Z,45.79
2023-02-08T13:18:21.184Z,47.34
2023-02-08T13:19:21.144Z,45.90
2023-02-08T13:20:21.106Z,45.17
2023-02-08T13:21:21.000Z,45.07
2023-02-08T13:22:21.001Z,45.59
2023-02-08T13:23:20.950Z,45.90
2023-02-08T13:24:20.806Z,46.41
2023-02-08T13:25:20.781Z,44.86
2023-02-08T13:26:20.680Z,44.45
2023-02-08T13:27:20.705Z,43.60
2023-02-08T13:28:20.716Z,44.35
2023-02-08T13:29:20.542Z,43.83
2023-02-08T13:30:20.459Z,44.04
2023-02-08T13:31:20.486Z,42.69
2023-02-08T13:32:20.326Z,43.50
2023-02-08T13:33:20.303Z,43.40
2023-02-08T13:35:29.423Z,43.41
2023-02-08T13:36:30.400Z,44.14
2023-02-08T13:37:31.443Z,43.95
2023-02-08T13:38:30.221Z,43.44
2023-02-08T13:39:30.153Z,43.54
2023-02-08T13:40:30.093Z,42.82
2023-02-08T13:41:30.027Z,42.73
2023-02-08T13:42:29.944Z,43.56
2023-02-08T13:43:35.766Z,44.70
2023-02-08T13:44:29.842Z,45.94
2023-02-08T13:45:29.756Z,45.21
2023-02-08T13:46:29.745Z,44.80
2023-02-08T13:47:29.594Z,45.53
2023-02-08T13:48:29.573Z,45.84
2023-02-08T13:49:29.478Z,44.90
2023-02-08T13:50:29.429Z,45.73
2023-02-08T13:51:29.390Z,44.90
2023-02-08T13:54:09.328Z,44.72
2023-02-08T13:55:09.155Z,44.31
2023-02-08T13:56:09.111Z,43.79
2023-02-08T13:57:08.989Z,43.68
2023-02-08T13:58:08.989Z,43.68
2023-02-08T13:59:08.884Z,44.82
2023-02-08T14:00:08.801Z,44.62
2023-02-08T14:01:08.805Z,44.93
2023-02-08T14:02:08.717Z,45.44
2023-02-08T14:03:08.716Z,44.82
2023-02-08T14:04:08.617Z,45.65
2023-02-08T14:05:08.543Z,45.96
2023-02-08T14:06:08.429Z,44.80
2023-02-08T14:07:08.413Z,44.90
2023-02-08T14:08:08.329Z,45.63
2023-02-08T14:09:08.271Z,45.53
2023-02-08T14:10:08.219Z,45.01
2023-02-08T14:11:08.156Z,45.21
2023-02-08T14:12:08.071Z,45.32
2023-02-08T14:13:08.038Z,44.38
2023-02-08T14:14:07.967Z,45.73
2023-02-08T14:15:07.896Z,45.11
2023-02-08T14:16:07.881Z,44.70
2023-02-08T14:17:07.748Z,44.18
2023-02-08T14:18:07.718Z,45.32
2023-02-08T14:19:07.682Z,45.63
2023-02-08T14:20:07.585Z,45.42
2023-02-08T14:21:07.532Z,45.42
2023-02-08T14:22:07.436Z,45.94
2023-02-08T14:23:07.370Z,46.04
2023-02-08T14:24:07.320Z,45.63
2023-02-08T14:25:07.247Z,45.21
2023-02-08T14:26:07.173Z,44.62
2023-02-08T14:27:09.253Z,45.75
2023-02-08T14:28:28.098Z,45.96
2023-02-08T14:29:06.988Z,45.96
2023-02-08T14:30:07.729Z,46.27
2023-02-08T14:31:06.958Z,46.48
2023-02-08T14:32:06.820Z,46.89
2023-02-08T14:33:06.775Z,46.79
2023-02-08T14:34:06.779Z,46.69
2023-02-08T14:35:06.648Z,47.10
2023-02-08T14:36:06.561Z,47.82
2023-02-08T14:37:06.493Z,45.96
2023-02-08T14:38:06.459Z,46.15
2023-02-08T14:39:06.386Z,46.79
2023-02-08T14:40:06.299Z,46.25
2023-02-08T14:41:06.250Z,46.89
2023-02-08T14:42:06.213Z,46.58
2023-02-08T14:43:06.193Z,46.79
2023-02-08T14:44:06.032Z,46.27
2023-02-08T14:45:05.989Z,46.17
2023-02-08T14:46:26.982Z,46.48
2023-02-08T14:47:05.877Z,46.48
2023-02-08T14:48:05.809Z,45.54
2023-02-08T14:49:05.729Z,44.41
2023-02-08T14:50:05.721Z,44.72
2023-02-08T14:51:05.609Z,45.65